Time,TemperatureF,DewpointF,PressureIn,WindDirection,WindDirectionDegrees,WindSpeedMPH,WindSpeedGustMPH,Humidity,HourlyPrecipIn,Conditions,Clouds,dailyrainin,SoftwareType,DateUTC
2013-07-26 00:00:00,59.5,56.9,29.36,East,90,0.0,0.0,91,0.00,RA,SKC,0.00,WeatherDisplay:10.37,2013-07-25 23:00:00,
2013-07-26 00:05:00,59.4,56.7,29.36,East,90,0.0,0.0,91,0.00,RA,SKC,0.00,WeatherDisplay:10.37,2013-07-25 23:05:00,
2013-07-26 00:10:00,59.4,56.7,29.36,East,90,0.0,0.0,91,0.00,CLR,SKC,0.00,WeatherDisplay:10.37,2013-07-25 23:10:00,
2013-07-26 00:15:00,59.4,56.7,29.36,East,90,0.0,0.0,91,0.00,CLR,SKC,0.00,WeatherDisplay:10.37,2013-07-25 23:15:00,
2013-07-26 00:21:00,59.5,56.9,29.36,East,90,0.0,0.0,91,0.00,CLR,SKC,0.00,WeatherDisplay:10.37,2013-07-25 23:21:00,
2013-07-26 00:26:00,59.4,56.7,29.36,ENE,68,0.0,0.0,91,0.00,CLR,SKC,0.00,WeatherDisplay:10.37,2013-07-25 23:26:00,
2013-07-26 00:31:00,59.4,56.7,29.36,ENE,68,0.0,0.0,91,0.00,CLR,SKC,0.00,WeatherDisplay:10.37,2013-07-25 23:31:00,
2013-07-26 00:36:00,58.8,56.2,29.36,ENE,68,0.0,0.0,91,0.00,CLR,SKC,0.00,WeatherDisplay:10.37,2013-07-25 23:36:00,
2013-07-26 00:41:00,58.8,56.2,29.36,ENE,68,0.0,0.0,91,0.00,CLR,SKC,0.00,WeatherDisplay:10.37,2013-07-25 23:41:00,
2013-07-26 00:46:00,58.8,56.5,29.36,ENE,68,0.0,0.0,92,0.00,CLR,SKC,0.00,WeatherDisplay:10.37,2013-07-25 23:46:00,
2013-07-26 00:51:00,58.5,56.1,29.36,ENE,68,0.0,0.0,92,0.00,CLR,SKC,0.00,WeatherDisplay:10.37,2013-07-25 23:51:00,
2013-07-26 00:56:00,58.5,56.1,29.36,ENE,68,0.0,0.0,92,0.00,CLR,SKC,0.00,WeatherDisplay:10.37,2013-07-25 23:56:00,
2013-07-26 01:01:00,58.5,56.1,29.36,ENE,68,0.0,0.0,92,0.00,CLR,SKC,0.00,WeatherDisplay:10.37,2013-07-26 00:01:00,
2013-07-26 01:06:00,58.6,56.3,29.36,ENE,68,0.0,0.0,92,0.00,CLR,SKC,0.00,WeatherDisplay:10.37,2013-07-26 00:06:00,
2013-07-26 01:11:00,58.8,56.5,29.36,ENE,68,0.0,0.0,92,0.00,CLR,SKC,0.00,WeatherDisplay:10.37,2013-07-26 00:11:00,
2013-07-26 01:16:00,58.8,56.5,29.36,ENE,68,0.0,0.0,92,0.00,CLR,SKC,0.00,WeatherDisplay:10.37,2013-07-26 00:16:00,
2013-07-26 01:21:00,58.8,56.5,29.36,ENE,68,0.0,0.0,92,0.00,CLR,SKC,0.00,WeatherDisplay:10.37,2013-07-26 00:21:00,
2013-07-26 01:26:00,58.8,56.5,29.36,ENE,68,0.0,0.0,92,0.00,CLR,SKC,0.00,WeatherDisplay:10.37,2013-07-26 00:26:00,
2013-07-26 01:31:00,59.2,56.9,29.37,ENE,68,0.0,0.0,92,0.00,CLR,SKC,0.00,WeatherDisplay:10.37,2013-07-26 00:31:00,
2013-07-26 01:36:00,59.2,56.9,29.36,ENE,68,0.0,0.0,92,0.00,CLR,SKC,0.00,WeatherDisplay:10.37,2013-07-26 00:36:00,
2013-07-26 01:41:00,58.8,56.5,29.36,ENE,68,0.0,0.0,92,0.00,CLR,SKC,0.00,WeatherDisplay:10.37,2013-07-26 00:41:00,
2013-07-26 01:46:00,58.8,56.5,29.36,ENE,68,0.0,0.0,92,0.00,CLR,SKC,0.00,WeatherDisplay:10.37,2013-07-26 00:46:00,
2013-07-26 01:51:00,58.8,56.5,29.37,ENE,68,0.0,0.0,92,0.00,CLR,SKC,0.00,WeatherDisplay:10.37,2013-07-26 00:51:00,
2013-07-26 01:56:00,58.8,56.5,29.36,ENE,68,0.0,0.0,92,0.00,CLR,SKC,0.00,WeatherDisplay:10.37,2013-07-26 00:56:00,
2013-07-26 02:01:00,58.8,56.5,29.36,ENE,68,0.0,0.0,92,0.00,CLR,SKC,0.00,WeatherDisplay:10.37,2013-07-26 01:01:00,
2013-07-26 02:06:00,59.2,56.9,29.36,ENE,68,0.0,0.0,92,0.00,CLR,SKC,0.00,WeatherDisplay:10.37,2013-07-26 01:06:00,
2013-07-26 02:11:00,59.2,56.9,29.36,ENE,68,0.0,0.0,92,0.00,CLR,SKC,0.00,WeatherDisplay:10.37,2013-07-26 01:11:00,
2013-07-26 02:16:00,59.2,56.9,29.36,ENE,68,0.0,0.0,92,0.00,CLR,SKC,0.00,WeatherDisplay:10.37,2013-07-26 01:16:00,
2013-07-26 02:21:00,59.2,56.9,29.36,ENE,68,0.0,0.0,92,0.00,CLR,SKC,0.00,WeatherDisplay:10.37,2013-07-26 01:21:00,
2013-07-26 02:26:00,58.8,56.5,29.36,ENE,68,0.0,0.0,92,0.00,CLR,SKC,0.00,WeatherDisplay:10.37,2013-07-26 01:26:00,
2013-07-26 02:32:00,58.8,56.5,29.36,ENE,68,0.0,0.0,92,0.00,CLR,SKC,0.00,WeatherDisplay:10.37,2013-07-26 01:32:00,
2013-07-26 02:37:00,58.8,56.5,29.36,ENE,68,0.0,0.0,92,0.00,CLR,SKC,0.00,WeatherDisplay:10.37,2013-07-26 01:37:00,
2013-07-26 02:42:00,58.8,56.5,29.36,ENE,68,0.0,0.0,92,0.00,CLR,SKC,0.00,WeatherDisplay:10.37,2013-07-26 01:42:00,
2013-07-26 02:47:00,58.8,56.5,29.36,ENE,68,0.0,0.0,92,0.00,CLR,SKC,0.00,WeatherDisplay:10.37,2013-07-26 01:47:00,
2013-07-26 02:52:00,58.8,56.5,29.36,ENE,68,0.0,0.0,92,0.00,CLR,SKC,0.00,WeatherDisplay:10.37,2013-07-26 01:52:00,
2013-07-26 02:57:00,58.8,56.5,29.36,ENE,68,0.0,0.0,92,0.00,CLR,SKC,0.00,WeatherDisplay:10.37,2013-07-26 01:57:00,
2013-07-26 03:02:00,58.8,56.5,29.36,ENE,68,0.0,0.0,92,0.00,CLR,SKC,0.00,WeatherDisplay:10.37,2013-07-26 02:02:00,
2013-07-26 03:07:00,58.8,56.5,29.36,ENE,68,0.0,0.0,92,0.00,CLR,SKC,0.00,WeatherDisplay:10.37,2013-07-26 02:07:00,
2013-07-26 03:12:00,58.6,56.3,29.36,ENE,68,0.0,0.0,92,0.00,CLR,SKC,0.00,WeatherDisplay:10.37,2013-07-26 02:12:00,
2013-07-26 03:17:00,58.6,56.3,29.36,ENE,68,0.0,0.0,92,0.00,CLR,SKC,0.00,WeatherDisplay:10.37,2013-07-26 02:17:00,
2013-07-26 03:22:00,58.6,56.3,29.36,ENE,68,0.0,0.0,92,0.00,CLR,SKC,0.00,WeatherDisplay:10.37,2013-07-26 02:22:00,
2013-07-26 03:27:00,58.3,56.0,29.35,ENE,68,0.0,0.0,92,0.00,CLR,SKC,0.00,WeatherDisplay:10.37,2013-07-26 02:27:00,
2013-07-26 03:32:00,58.3,56.0,29.36,ENE,68,0.0,0.0,92,0.00,CLR,SKC,0.00,WeatherDisplay:10.37,2013-07-26 02:32:00,
2013-07-26 03:37:00,58.1,55.8,29.36,ENE,68,0.0,0.0,92,0.00,CLR,SKC,0.00,WeatherDisplay:10.37,2013-07-26 02:37:00,
2013-07-26 03:42:00,58.3,56.0,29.36,ENE,68,0.0,0.0,92,0.00,CLR,SKC,0.00,WeatherDisplay:10.37,2013-07-26 02:42:00,
2013-07-26 03:47:00,58.3,56.0,29.36,ENE,68,0.0,0.0,92,0.00,CLR,SKC,0.00,WeatherDisplay:10.37,2013-07-26 02:47:00,
2013-07-26 03:52:00,58.3,56.0,29.36,ENE,68,0.0,0.0,92,0.00,CLR,SKC,0.00,WeatherDisplay:10.37,2013-07-26 02:52:00,
2013-07-26 03:57:00,58.3,56.0,29.35,ENE,68,0.0,0.0,92,0.00,CLR,SKC,0.00,WeatherDisplay:10.37,2013-07-26 02:57:00,
2013-07-26 04:02:00,58.5,56.1,29.35,ENE,68,0.0,0.0,92,0.00,CLR,SKC,0.00,WeatherDisplay:10.37,2013-07-26 03:02:00,
2013-07-26 04:07:00,58.5,56.1,29.35,ENE,68,0.0,0.0,92,0.00,CLR,SKC,0.00,WeatherDisplay:10.37,2013-07-26 03:07:00,
2013-07-26 04:12:00,58.5,56.1,29.36,ENE,68,0.0,0.0,92,0.00,CLR,SKC,0.00,WeatherDisplay:10.37,2013-07-26 03:12:00,
2013-07-26 04:17:00,58.6,56.3,29.36,ENE,68,0.0,0.0,92,0.00,CLR,SKC,0.00,WeatherDisplay:10.37,2013-07-26 03:17:00,
2013-07-26 04:22:00,58.6,56.3,29.35,ENE,68,0.0,0.0,92,0.00,CLR,SKC,0.00,WeatherDisplay:10.37,2013-07-26 03:22:00,
2013-07-26 04:27:00,58.6,56.3,29.35,ENE,68,0.0,0.0,92,0.00,CLR,SKC,0.00,WeatherDisplay:10.37,2013-07-26 03:27:00,
2013-07-26 04:32:00,58.6,56.3,29.36,ENE,68,0.0,0.0,92,0.00,CLR,SKC,0.00,WeatherDisplay:10.37,2013-07-26 03:32:00,
2013-07-26 04:37:00,58.6,56.3,29.36,ENE,68,0.0,0.0,92,0.00,CLR,SKC,0.00,WeatherDisplay:10.37,2013-07-26 03:37:00,
2013-07-26 04:42:00,58.8,56.5,29.35,ENE,68,0.0,0.0,92,0.00,CLR,SKC,0.00,WeatherDisplay:10.37,2013-07-26 03:42:00,
2013-07-26 04:47:00,58.8,56.5,29.36,ENE,68,0.0,0.0,92,0.00,CLR,SKC,0.00,WeatherDisplay:10.37,2013-07-26 03:47:00,
2013-07-26 04:52:00,58.8,56.5,29.35,ENE,68,0.0,0.0,92,0.00,CLR,SKC,0.00,WeatherDisplay:10.37,2013-07-26 03:52:00,
2013-07-26 04:58:00,58.8,56.5,29.35,ENE,68,0.0,0.0,92,0.00,CLR,SKC,0.00,WeatherDisplay:10.37,2013-07-26 03:58:00,
2013-07-26 05:01:00,58.8,56.5,29.35,ENE,68,0.0,0.0,92,0.00,CLR,SKC,0.00,WeatherDisplay:10.37,2013-07-26 04:01:00,
2013-07-26 05:02:00,58.8,56.5,29.35,ENE,68,0.0,0.0,92,0.00,CLR,SKC,0.00,WeatherDisplay:10.37,2013-07-26 04:02:00,
2013-07-26 05:07:00,58.8,56.5,29.35,ENE,68,0.0,0.0,92,0.00,CLR,SKC,0.00,WeatherDisplay:10.37,2013-07-26 04:07:00,
2013-07-26 05:12:00,58.8,56.5,29.35,ENE,68,0.0,0.0,92,0.00,CLR,SKC,0.00,WeatherDisplay:10.37,2013-07-26 04:12:00,
2013-07-26 05:17:00,58.8,56.5,29.35,ENE,68,0.0,0.0,92,0.00,CLR,SKC,0.00,WeatherDisplay:10.37,2013-07-26 04:17:00,
2013-07-26 05:22:00,58.8,56.2,29.35,ENE,68,0.0,0.0,91,0.00,CLR,SKC,0.00,WeatherDisplay:10.37,2013-07-26 04:22:00,
2013-07-26 05:27:00,58.8,56.5,29.36,ENE,68,0.0,0.0,92,0.00,CLR,SKC,0.00,WeatherDisplay:10.37,2013-07-26 04:27:00,
2013-07-26 05:32:00,58.8,56.5,29.36,ENE,68,0.0,0.0,92,0.00,CLR,SKC,0.00,WeatherDisplay:10.37,2013-07-26 04:32:00,
2013-07-26 05:37:00,58.8,56.2,29.36,ENE,68,0.0,0.0,91,0.00,CLR,SKC,0.00,WeatherDisplay:10.37,2013-07-26 04:37:00,
2013-07-26 05:42:00,58.8,56.2,29.36,ENE,68,0.0,0.0,91,0.00,CLR,SKC,0.00,WeatherDisplay:10.37,2013-07-26 04:42:00,
2013-07-26 05:47:00,58.8,56.2,29.36,ENE,68,0.0,0.0,91,0.00,CLR,SKC,0.00,WeatherDisplay:10.37,2013-07-26 04:47:00,
2013-07-26 05:52:00,59.2,56.6,29.36,ENE,68,0.0,0.0,91,0.00,CLR,SKC,0.00,WeatherDisplay:10.37,2013-07-26 04:52:00,
2013-07-26 05:57:00,59.2,56.6,29.36,ENE,68,0.0,0.0,91,0.00,CLR,SKC,0.00,WeatherDisplay:10.37,2013-07-26 04:57:00,
2013-07-26 06:02:00,59.4,56.7,29.36,ENE,68,0.0,0.0,91,0.00,CLR,SKC,0.00,WeatherDisplay:10.37,2013-07-26 05:02:00,
2013-07-26 06:08:00,59.5,56.9,29.36,ENE,68,0.0,0.0,91,0.00,CLR,SKC,0.00,WeatherDisplay:10.37,2013-07-26 05:08:00,
2013-07-26 06:13:00,59.5,56.9,29.36,ENE,68,0.0,0.0,91,0.00,CLR,SKC,0.00,WeatherDisplay:10.37,2013-07-26 05:13:00,
2013-07-26 06:18:00,59.5,56.9,29.36,ENE,68,0.0,0.0,91,0.00,CLR,SKC,0.00,WeatherDisplay:10.37,2013-07-26 05:18:00,
2013-07-26 06:23:00,59.5,56.9,29.36,ENE,68,0.0,0.0,91,0.00,CLR,SKC,0.00,WeatherDisplay:10.37,2013-07-26 05:23:00,
2013-07-26 06:28:00,59.5,56.9,29.36,ENE,68,0.0,0.0,91,0.00,CLR,SKC,0.00,WeatherDisplay:10.37,2013-07-26 05:28:00,
2013-07-26 06:33:00,59.7,57.1,29.36,ENE,68,0.0,0.0,91,0.00,CLR,SKC,0.00,WeatherDisplay:10.37,2013-07-26 05:33:00,
2013-07-26 06:38:00,59.9,57.3,29.36,ENE,68,0.0,0.0,91,0.00,CLR,SKC,0.00,WeatherDisplay:10.37,2013-07-26 05:38:00,
2013-07-26 06:43:00,60.1,57.4,29.36,ENE,68,0.0,0.0,91,0.00,CLR,SKC,0.00,WeatherDisplay:10.37,2013-07-26 05:43:00,
2013-07-26 06:48:00,60.3,57.3,29.36,ENE,68,0.0,0.0,90,0.00,CLR,SKC,0.00,WeatherDisplay:10.37,2013-07-26 05:48:00,
2013-07-26 06:53:00,60.6,57.7,29.36,ENE,68,0.0,0.0,90,0.00,CLR,SKC,0.00,WeatherDisplay:10.37,2013-07-26 05:53:00,
2013-07-26 06:58:00,60.6,57.7,29.36,NE,45,0.0,0.0,90,0.00,CLR,SKC,0.00,WeatherDisplay:10.37,2013-07-26 05:58:00,
2013-07-26 07:03:00,60.6,57.7,29.36,NE,45,0.0,0.0,90,0.00,CLR,SKC,0.00,WeatherDisplay:10.37,2013-07-26 06:03:00,
2013-07-26 07:08:00,60.8,57.8,29.36,NE,45,0.0,0.0,90,0.00,CLR,SKC,0.00,WeatherDisplay:10.37,2013-07-26 06:08:00,
2013-07-26 07:13:00,60.8,57.8,29.36,NE,45,0.0,0.0,90,0.00,CLR,SKC,0.00,WeatherDisplay:10.37,2013-07-26 06:13:00,
2013-07-26 07:18:00,61.0,58.0,29.36,NE,45,0.0,0.0,90,0.00,CLR,SKC,0.00,WeatherDisplay:10.37,2013-07-26 06:18:00,
2013-07-26 07:23:00,61.0,58.0,29.36,NE,45,0.0,0.0,90,0.00,CLR,SKC,0.00,WeatherDisplay:10.37,2013-07-26 06:23:00,
2013-07-26 07:28:00,61.2,58.2,29.36,NE,45,0.0,0.0,90,0.00,CLR,SKC,0.00,WeatherDisplay:10.37,2013-07-26 06:28:00,
2013-07-26 07:33:00,61.3,58.4,29.36,NE,45,0.0,0.0,90,0.00,CLR,SKC,0.00,WeatherDisplay:10.37,2013-07-26 06:33:00,
2013-07-26 07:38:00,61.3,58.1,29.36,NE,45,0.0,0.0,89,0.00,CLR,SKC,0.00,WeatherDisplay:10.37,2013-07-26 06:38:00,
2013-07-26 07:43:00,61.3,58.1,29.36,NE,45,0.0,0.0,89,0.00,CLR,SKC,0.00,WeatherDisplay:10.37,2013-07-26 06:43:00,
2013-07-26 07:48:00,61.3,58.1,29.37,NE,45,0.0,0.0,89,0.00,CLR,SKC,0.00,WeatherDisplay:10.37,2013-07-26 06:48:00,
2013-07-26 07:53:00,61.5,58.2,29.36,NE,45,0.0,0.0,89,0.00,CLR,SKC,0.00,WeatherDisplay:10.37,2013-07-26 06:53:00,
2013-07-26 07:58:00,61.5,58.2,29.37,NE,45,0.0,0.0,89,0.00,CLR,SKC,0.00,WeatherDisplay:10.37,2013-07-26 06:58:00,
2013-07-26 08:03:00,61.5,58.2,29.36,NE,45,0.0,0.0,89,0.00,CLR,SKC,0.00,WeatherDisplay:10.37,2013-07-26 07:03:00,
2013-07-26 08:08:00,61.9,58.6,29.36,NNE,22,0.0,0.0,89,0.00,CLR,SKC,0.00,WeatherDisplay:10.37,2013-07-26 07:08:00,
2013-07-26 08:13:00,62.2,59.0,29.36,NNE,22,0.0,0.0,89,0.00,CLR,SKC,0.00,WeatherDisplay:10.37,2013-07-26 07:13:00,
2013-07-26 08:18:00,62.4,59.1,29.36,NNE,22,0.0,0.0,89,0.00,CLR,SKC,0.00,WeatherDisplay:10.37,2013-07-26 07:18:00,
2013-07-26 08:23:00,63.0,59.7,29.36,NNE,22,0.0,0.0,89,0.00,CLR,SKC,0.00,WeatherDisplay:10.37,2013-07-26 07:23:00,
2013-07-26 08:28:00,63.1,59.5,29.36,NNE,22,0.0,0.0,88,0.00,CLR,SKC,0.00,WeatherDisplay:10.37,2013-07-26 07:28:00,
2013-07-26 08:33:00,63.3,59.4,29.37,NNE,22,0.0,0.0,87,0.00,CLR,SKC,0.00,WeatherDisplay:10.37,2013-07-26 07:33:00,
2013-07-26 08:38:00,63.7,59.7,29.37,NNE,22,0.0,0.0,87,0.00,CLR,SKC,0.00,WeatherDisplay:10.37,2013-07-26 07:38:00,
2013-07-26 08:43:00,64.0,59.8,29.37,NNE,22,0.0,0.0,86,0.00,CLR,SKC,0.00,WeatherDisplay:10.37,2013-07-26 07:43:00,
2013-07-26 08:48:00,64.0,59.8,29.37,NNE,22,0.0,0.0,86,0.00,CLR,SKC,0.00,WeatherDisplay:10.37,2013-07-26 07:48:00,
2013-07-26 08:53:00,64.6,60.3,29.37,NNE,22,0.0,0.0,86,0.00,CLR,SKC,0.00,WeatherDisplay:10.37,2013-07-26 07:53:00,
2013-07-26 08:58:00,64.6,60.3,29.38,NNE,22,0.0,0.0,86,0.00,CLR,SKC,0.00,WeatherDisplay:10.37,2013-07-26 07:58:00,
2013-07-26 09:03:00,64.9,60.6,29.38,NNE,22,0.0,0.0,86,0.00,CLR,SKC,0.00,WeatherDisplay:10.37,2013-07-26 08:03:00,
2013-07-26 09:08:00,65.7,61.0,29.38,NNE,22,0.0,0.0,85,0.00,CLR,SKC,0.00,WeatherDisplay:10.37,2013-07-26 08:08:00,
2013-07-26 09:13:00,66.9,61.9,29.37,NNE,22,0.0,0.0,84,0.00,CLR,SKC,0.00,WeatherDisplay:10.37,2013-07-26 08:13:00,
2013-07-26 09:18:00,67.3,61.6,29.37,NNE,22,0.0,0.0,82,0.00,CLR,SKC,0.00,WeatherDisplay:10.37,2013-07-26 08:18:00,
2013-07-26 09:23:00,67.3,60.9,29.37,NNE,22,0.0,0.0,80,0.00,CLR,SKC,0.00,WeatherDisplay:10.37,2013-07-26 08:23:00,
2013-07-26 09:28:00,66.9,60.5,29.37,North,0,0.0,0.0,80,0.00,CLR,SKC,0.00,WeatherDisplay:10.37,2013-07-26 08:28:00,
2013-07-26 09:33:00,66.6,60.2,29.37,North,0,0.0,0.0,80,0.00,CLR,SKC,0.00,WeatherDisplay:10.37,2013-07-26 08:33:00,
2013-07-26 09:38:00,66.7,60.4,29.37,North,0,0.0,0.0,80,0.00,CLR,SKC,0.00,WeatherDisplay:10.37,2013-07-26 08:38:00,
2013-07-26 09:43:00,67.3,60.9,29.38,NW,315,0.0,0.0,80,0.00,CLR,SKC,0.00,WeatherDisplay:10.37,2013-07-26 08:43:00,
2013-07-26 09:48:00,67.6,60.9,29.37,NW,315,0.0,0.0,79,0.00,CLR,SKC,0.00,WeatherDisplay:10.37,2013-07-26 08:48:00,
2013-07-26 09:53:00,68.2,61.4,29.37,NW,315,0.0,0.0,79,0.00,CLR,SKC,0.00,WeatherDisplay:10.37,2013-07-26 08:53:00,
2013-07-26 09:58:00,68.7,61.2,29.37,NW,315,0.0,0.0,77,0.00,CLR,SKC,0.00,WeatherDisplay:10.37,2013-07-26 08:58:00,
2013-07-26 10:03:00,69.4,61.9,29.37,West,270,0.0,0.0,77,0.00,CLR,SKC,0.00,WeatherDisplay:10.37,2013-07-26 09:03:00,
2013-07-26 10:08:00,70.2,61.9,29.37,NW,315,0.0,0.0,75,0.00,CLR,SKC,0.00,WeatherDisplay:10.37,2013-07-26 09:08:00,
2013-07-26 10:13:00,69.1,60.8,29.37,NNW,338,0.0,0.0,75,0.00,CLR,SKC,0.00,WeatherDisplay:10.37,2013-07-26 09:13:00,
2013-07-26 10:18:00,68.2,60.3,29.37,NNW,338,0.0,0.0,76,0.00,CLR,SKC,0.00,WeatherDisplay:10.37,2013-07-26 09:18:00,
2013-07-26 10:23:00,69.6,63.2,29.36,WNW,292,0.0,0.0,80,0.00,CLR,SKC,0.00,WeatherDisplay:10.37,2013-07-26 09:23:00,
2013-07-26 10:28:00,70.9,63.3,29.37,WSW,248,0.0,0.0,77,0.00,CLR,SKC,0.00,WeatherDisplay:10.37,2013-07-26 09:28:00,
2013-07-26 10:33:00,70.3,62.0,29.37,NW,315,0.0,0.0,75,0.00,CLR,SKC,0.00,WeatherDisplay:10.37,2013-07-26 09:33:00,
2013-07-26 10:38:00,70.0,61.3,29.36,NW,315,0.0,0.0,74,0.00,CLR,SKC,0.00,WeatherDisplay:10.37,2013-07-26 09:38:00,
2013-07-26 10:43:00,69.6,61.0,29.36,NW,315,0.0,0.0,74,0.00,CLR,SKC,0.00,WeatherDisplay:10.37,2013-07-26 09:43:00,
2013-07-26 10:48:00,69.3,60.6,29.37,NW,315,0.0,0.0,74,0.00,CLR,SKC,0.00,WeatherDisplay:10.37,2013-07-26 09:48:00,
2013-07-26 10:53:00,69.4,61.5,29.37,WNW,292,0.0,0.0,76,0.00,CLR,SKC,0.00,WeatherDisplay:10.37,2013-07-26 09:53:00,
2013-07-26 10:58:00,70.0,62.4,29.37,SW,225,0.0,0.0,77,0.00,CLR,SKC,0.00,WeatherDisplay:10.37,2013-07-26 09:58:00,
2013-07-26 11:03:00,70.3,62.0,29.37,WNW,292,0.0,0.0,75,0.00,CLR,SKC,0.00,WeatherDisplay:10.37,2013-07-26 10:03:00,
2013-07-26 11:08:00,70.3,62.0,29.37,West,270,0.0,0.0,75,0.00,CLR,SKC,0.00,WeatherDisplay:10.37,2013-07-26 10:08:00,
2013-07-26 11:14:00,70.2,61.5,29.37,WSW,248,0.0,0.0,74,0.00,CLR,SKC,0.00,WeatherDisplay:10.37,2013-07-26 10:14:00,
2013-07-26 11:19:00,68.5,60.3,29.37,WSW,248,0.0,0.0,75,0.02,RA,SKC,0.02,WeatherDisplay:10.37,2013-07-26 10:19:00,
2013-07-26 11:24:00,68.4,60.5,29.37,West,270,0.0,0.0,76,0.02,RA,SKC,0.02,WeatherDisplay:10.37,2013-07-26 10:24:00,
2013-07-26 11:29:00,68.4,60.9,29.37,WSW,248,0.0,0.0,77,0.02,,SKC,0.02,WeatherDisplay:10.37,2013-07-26 10:29:00,
2013-07-26 11:34:00,70.3,64.2,29.37,WSW,248,0.0,0.0,81,0.02,CLR,SKC,0.02,WeatherDisplay:10.37,2013-07-26 10:34:00,
2013-07-26 11:39:00,71.2,64.0,29.37,West,270,0.0,0.0,78,0.02,CLR,SKC,0.02,WeatherDisplay:10.37,2013-07-26 10:39:00,
2013-07-26 11:44:00,71.2,63.7,29.37,West,270,0.0,0.0,77,0.02,CLR,SKC,0.02,WeatherDisplay:10.37,2013-07-26 10:44:00,
2013-07-26 11:49:00,70.5,62.2,29.37,West,270,0.0,0.0,75,0.02,CLR,SKC,0.02,WeatherDisplay:10.37,2013-07-26 10:49:00,
2013-07-26 11:54:00,69.6,61.3,29.37,West,270,0.0,0.0,75,0.04,RA,SKC,0.04,WeatherDisplay:10.37,2013-07-26 10:54:00,
2013-07-26 11:59:00,68.7,61.2,29.37,WSW,248,0.0,0.0,77,0.04,RA,SKC,0.04,WeatherDisplay:10.37,2013-07-26 10:59:00,
2013-07-26 12:04:00,70.9,65.5,29.37,WSW,248,0.0,0.0,83,0.06,RA,SKC,0.06,WeatherDisplay:10.37,2013-07-26 11:04:00,
2013-07-26 12:09:00,72.3,66.2,29.37,WSW,248,0.0,0.0,81,0.06,RA,SKC,0.06,WeatherDisplay:10.37,2013-07-26 11:09:00,
2013-07-26 12:14:00,72.7,65.1,29.36,WSW,248,0.0,0.0,77,0.06,CLR,SKC,0.06,WeatherDisplay:10.37,2013-07-26 11:14:00,
2013-07-26 12:19:00,72.7,64.7,29.36,WNW,292,0.0,0.0,76,0.04,CLR,SKC,0.06,WeatherDisplay:10.37,2013-07-26 11:19:00,
2013-07-26 12:24:00,72.9,64.8,29.36,West,270,0.0,0.0,76,0.04,CLR,SKC,0.06,WeatherDisplay:10.37,2013-07-26 11:24:00,
2013-07-26 12:29:00,72.7,64.3,29.36,West,270,0.0,0.0,75,0.04,CLR,SKC,0.06,WeatherDisplay:10.37,2013-07-26 11:29:00,
2013-07-26 12:34:00,71.8,63.4,29.36,West,270,0.0,0.0,75,0.06,RA,SKC,0.08,WeatherDisplay:10.37,2013-07-26 11:34:00,
2013-07-26 12:39:00,70.5,62.2,29.36,West,270,0.0,0.0,75,0.06,RA,SKC,0.08,WeatherDisplay:10.37,2013-07-26 11:39:00,
2013-07-26 12:44:00,70.0,62.1,29.36,West,270,0.0,0.0,76,0.08,RA,SKC,0.10,WeatherDisplay:10.37,2013-07-26 11:44:00,
2013-07-26 12:49:00,69.6,62.1,29.36,NW,315,0.0,0.0,77,0.08,RA,SKC,0.10,WeatherDisplay:10.37,2013-07-26 11:49:00,
2013-07-26 12:54:00,69.6,62.1,29.37,NNW,338,0.0,0.0,77,0.06,,SKC,0.10,WeatherDisplay:10.37,2013-07-26 11:54:00,
2013-07-26 12:59:00,69.4,61.9,29.37,NW,315,0.0,0.0,77,0.06,CLR,SKC,0.10,WeatherDisplay:10.37,2013-07-26 11:59:00,
2013-07-26 13:04:00,69.4,61.9,29.37,WNW,292,0.0,0.0,77,0.04,CLR,SKC,0.10,WeatherDisplay:10.37,2013-07-26 12:04:00,
2013-07-26 13:09:00,69.1,61.6,29.37,NW,315,0.0,0.0,77,0.04,CLR,SKC,0.10,WeatherDisplay:10.37,2013-07-26 12:09:00,
2013-07-26 13:14:00,68.4,60.9,29.37,NW,315,0.0,0.0,77,0.04,CLR,SKC,0.10,WeatherDisplay:10.37,2013-07-26 12:14:00,
2013-07-26 13:19:00,67.6,60.2,29.37,WNW,292,0.0,0.0,77,0.04,CLR,SKC,0.10,WeatherDisplay:10.37,2013-07-26 12:19:00,
2013-07-26 13:24:00,67.3,60.2,29.37,NW,315,0.0,0.0,78,0.04,CLR,SKC,0.10,WeatherDisplay:10.37,2013-07-26 12:24:00,
2013-07-26 13:29:00,67.1,60.0,29.38,West,270,0.0,0.0,78,0.04,CLR,SKC,0.10,WeatherDisplay:10.37,2013-07-26 12:29:00,
2013-07-26 13:34:00,67.3,60.5,29.37,West,270,0.0,0.0,79,0.02,CLR,SKC,0.10,WeatherDisplay:10.37,2013-07-26 12:34:00,
2013-07-26 13:39:00,67.8,61.4,29.37,West,270,0.0,0.0,80,0.02,CLR,SKC,0.10,WeatherDisplay:10.37,2013-07-26 12:39:00,
2013-07-26 13:44:00,68.7,62.3,29.37,West,270,0.0,0.0,80,0.00,CLR,SKC,0.10,WeatherDisplay:10.37,2013-07-26 12:44:00,
2013-07-26 13:49:00,69.6,62.1,29.37,West,270,0.0,0.0,77,0.00,CLR,SKC,0.10,WeatherDisplay:10.37,2013-07-26 12:49:00,
2013-07-26 13:54:00,69.6,62.1,29.37,West,270,0.0,0.0,77,0.00,CLR,SKC,0.10,WeatherDisplay:10.37,2013-07-26 12:54:00,
2013-07-26 13:59:00,69.6,62.1,29.37,WSW,248,0.0,0.0,77,0.00,CLR,SKC,0.10,WeatherDisplay:10.37,2013-07-26 12:59:00,
2013-07-26 14:04:00,69.4,61.5,29.37,WSW,248,0.0,0.0,76,0.00,CLR,SKC,0.10,WeatherDisplay:10.37,2013-07-26 13:04:00,
2013-07-26 14:09:00,69.6,62.1,29.37,WSW,248,0.0,0.0,77,0.00,CLR,SKC,0.10,WeatherDisplay:10.37,2013-07-26 13:09:00,
2013-07-26 14:14:00,69.4,61.5,29.37,WSW,248,0.0,0.0,76,0.00,CLR,SKC,0.10,WeatherDisplay:10.37,2013-07-26 13:14:00,
2013-07-26 14:19:00,69.6,61.7,29.37,WSW,248,0.0,0.0,76,0.00,CLR,SKC,0.10,WeatherDisplay:10.37,2013-07-26 13:19:00,
2013-07-26 14:24:00,70.0,62.1,29.36,South,180,0.0,0.0,76,0.00,CLR,SKC,0.10,WeatherDisplay:10.37,2013-07-26 13:24:00,
2013-07-26 14:29:00,70.5,62.2,29.36,ENE,68,0.0,0.0,75,0.00,CLR,SKC,0.10,WeatherDisplay:10.37,2013-07-26 13:29:00,
2013-07-26 14:34:00,70.5,61.8,29.36,ENE,68,0.0,0.0,74,0.00,CLR,SKC,0.10,WeatherDisplay:10.37,2013-07-26 13:34:00,
2013-07-26 14:39:00,69.6,60.6,29.37,East,90,0.0,0.0,73,0.00,CLR,SKC,0.10,WeatherDisplay:10.37,2013-07-26 13:39:00,
2013-07-26 14:44:00,68.5,59.5,29.36,NE,45,0.0,0.0,73,0.00,CLR,SKC,0.10,WeatherDisplay:10.37,2013-07-26 13:44:00,
2013-07-26 14:49:00,68.2,59.6,29.36,ENE,68,0.0,0.0,74,0.00,CLR,SKC,0.10,WeatherDisplay:10.37,2013-07-26 13:49:00,
2013-07-26 14:54:00,68.0,59.4,29.36,ENE,68,0.0,0.0,74,0.00,CLR,SKC,0.10,WeatherDisplay:10.37,2013-07-26 13:54:00,
2013-07-26 14:59:00,68.0,59.4,29.36,ENE,68,0.0,0.0,74,0.00,CLR,SKC,0.10,WeatherDisplay:10.37,2013-07-26 13:59:00,
2013-07-26 15:04:00,68.2,59.6,29.36,East,90,0.0,0.0,74,0.00,CLR,SKC,0.10,WeatherDisplay:10.37,2013-07-26 14:04:00,
2013-07-26 15:09:00,68.2,59.6,29.37,ESE,112,0.0,0.0,74,0.00,CLR,SKC,0.10,WeatherDisplay:10.37,2013-07-26 14:09:00,
2013-07-26 15:14:00,68.7,60.1,29.37,SSW,202,0.0,0.0,74,0.00,CLR,SKC,0.10,WeatherDisplay:10.37,2013-07-26 14:14:00,
2013-07-26 15:19:00,68.9,60.3,29.37,ESE,112,0.0,0.0,74,0.00,CLR,SKC,0.10,WeatherDisplay:10.37,2013-07-26 14:19:00,
2013-07-26 15:24:00,68.7,60.1,29.37,NW,315,0.0,0.0,74,0.00,CLR,SKC,0.10,WeatherDisplay:10.37,2013-07-26 14:24:00,
2013-07-26 15:29:00,68.2,59.6,29.37,East,90,0.0,0.0,74,0.00,CLR,SKC,0.10,WeatherDisplay:10.37,2013-07-26 14:29:00,
2013-07-26 15:34:00,67.6,59.4,29.37,SW,225,0.0,0.0,75,0.00,CLR,SKC,0.10,WeatherDisplay:10.37,2013-07-26 14:34:00,
2013-07-26 15:39:00,67.5,59.3,29.37,South,180,0.0,0.0,75,0.00,CLR,SKC,0.10,WeatherDisplay:10.37,2013-07-26 14:39:00,
2013-07-26 15:44:00,67.6,59.8,29.37,SW,225,0.0,0.0,76,0.00,CLR,SKC,0.10,WeatherDisplay:10.37,2013-07-26 14:44:00,
2013-07-26 15:49:00,67.8,57.7,29.37,South,180,0.0,0.0,70,0.00,CLR,SKC,0.10,WeatherDisplay:10.37,2013-07-26 14:49:00,
2013-07-26 15:54:00,67.3,56.8,29.37,SSW,202,0.0,0.0,69,0.00,CLR,SKC,0.10,WeatherDisplay:10.37,2013-07-26 14:54:00,
2013-07-26 15:59:00,66.9,56.8,29.37,SW,225,0.0,0.0,70,0.00,CLR,SKC,0.10,WeatherDisplay:10.37,2013-07-26 14:59:00,
2013-07-26 16:05:00,66.9,56.4,29.37,NNE,22,0.0,0.0,69,0.00,CLR,SKC,0.10,WeatherDisplay:10.37,2013-07-26 15:05:00,
2013-07-26 16:10:00,66.4,55.9,29.37,WSW,248,0.0,0.0,69,0.00,CLR,SKC,0.10,WeatherDisplay:10.37,2013-07-26 15:10:00,
2013-07-26 16:15:00,66.0,56.0,29.37,SSW,202,0.0,0.0,70,0.00,CLR,SKC,0.10,WeatherDisplay:10.37,2013-07-26 15:15:00,
2013-07-26 16:20:00,65.8,55.8,29.37,West,270,0.0,0.0,70,0.00,CLR,SKC,0.10,WeatherDisplay:10.37,2013-07-26 15:20:00,
2013-07-26 16:25:00,65.1,55.9,29.37,ESE,112,0.0,0.0,72,0.00,CLR,SKC,0.10,WeatherDisplay:10.37,2013-07-26 15:25:00,
2013-07-26 16:30:00,64.2,55.0,29.37,SSE,158,0.0,0.0,72,0.00,CLR,SKC,0.10,WeatherDisplay:10.37,2013-07-26 15:30:00,
2013-07-26 16:35:00,63.7,54.9,29.37,WSW,248,0.0,0.0,73,0.00,CLR,SKC,0.10,WeatherDisplay:10.37,2013-07-26 15:35:00,
2013-07-26 16:40:00,63.1,55.1,29.36,SW,225,0.0,0.0,75,0.00,CLR,SKC,0.10,WeatherDisplay:10.37,2013-07-26 15:40:00,
2013-07-26 16:45:00,63.0,55.3,29.36,SW,225,0.0,0.0,76,0.00,CLR,SKC,0.10,WeatherDisplay:10.37,2013-07-26 15:45:00,
2013-07-26 16:50:00,63.1,55.8,29.36,SW,225,0.0,0.0,77,0.00,CLR,SKC,0.10,WeatherDisplay:10.37,2013-07-26 15:50:00,
2013-07-26 16:55:00,63.5,56.5,29.36,SSW,202,0.0,0.0,78,0.02,RA,SKC,0.12,WeatherDisplay:10.37,2013-07-26 15:55:00,
2013-07-26 17:00:00,63.7,56.3,29.36,SSW,202,0.0,0.0,77,0.02,RA,SKC,0.12,WeatherDisplay:10.37,2013-07-26 16:00:00,
2013-07-26 17:05:00,64.0,57.0,29.36,SSW,202,0.0,0.0,78,0.02,CLR,SKC,0.12,WeatherDisplay:10.37,2013-07-26 16:05:00,
2013-07-26 17:10:00,64.6,57.6,29.36,SSW,202,0.0,0.0,78,0.02,CLR,SKC,0.12,WeatherDisplay:10.37,2013-07-26 16:10:00,
2013-07-26 17:15:00,65.1,58.1,29.35,SSW,202,0.0,0.0,78,0.02,CLR,SKC,0.12,WeatherDisplay:10.37,2013-07-26 16:15:00,
2013-07-26 17:20:00,66.0,58.6,29.35,SSW,202,0.0,0.0,77,0.02,CLR,SKC,0.12,WeatherDisplay:10.37,2013-07-26 16:20:00,
2013-07-26 17:25:00,66.4,58.9,29.35,SSW,202,0.0,0.0,77,0.02,CLR,SKC,0.12,WeatherDisplay:10.37,2013-07-26 16:25:00,
2013-07-26 17:30:00,67.1,59.6,29.35,SSW,202,0.0,0.0,77,0.02,CLR,SKC,0.12,WeatherDisplay:10.37,2013-07-26 16:30:00,
2013-07-26 17:35:00,68.2,60.7,29.35,SSW,202,0.0,0.0,77,0.02,CLR,SKC,0.12,WeatherDisplay:10.37,2013-07-26 16:35:00,
2013-07-26 17:40:00,70.2,61.5,29.35,SSW,202,0.0,0.0,74,0.02,CLR,SKC,0.12,WeatherDisplay:10.37,2013-07-26 16:40:00,
2013-07-26 17:45:00,71.1,62.0,29.35,SSW,202,0.0,0.0,73,0.02,CLR,SKC,0.12,WeatherDisplay:10.37,2013-07-26 16:45:00,
2013-07-26 17:50:00,71.8,61.9,29.34,SSW,202,0.0,0.0,71,0.02,CLR,SKC,0.12,WeatherDisplay:10.37,2013-07-26 16:50:00,
2013-07-26 17:55:00,73.9,63.9,29.35,SSW,202,0.0,0.0,71,0.00,CLR,SKC,0.12,WeatherDisplay:10.37,2013-07-26 16:55:00,
2013-07-26 18:00:00,76.3,64.5,29.35,SSW,202,0.0,0.0,67,0.00,CLR,SKC,0.12,WeatherDisplay:10.37,2013-07-26 17:00:00,
2013-07-26 18:05:00,76.8,63.7,29.35,South,180,0.0,0.0,64,0.00,CLR,SKC,0.12,WeatherDisplay:10.37,2013-07-26 17:05:00,
2013-07-26 18:10:00,81.5,67.7,29.34,West,270,0.0,0.0,63,0.00,CLR,SKC,0.12,WeatherDisplay:10.37,2013-07-26 17:10:00,
2013-07-26 18:15:00,83.1,65.8,29.34,WNW,292,0.0,0.0,56,0.00,CLR,SKC,0.12,WeatherDisplay:10.37,2013-07-26 17:15:00,
2013-07-26 18:20:00,84.9,65.9,29.34,WNW,292,0.0,0.0,53,0.00,CLR,SKC,0.12,WeatherDisplay:10.37,2013-07-26 17:20:00,
2013-07-26 18:25:00,82.6,63.2,29.34,West,270,0.0,0.0,52,0.00,CLR,SKC,0.12,WeatherDisplay:10.37,2013-07-26 17:25:00,
2013-07-26 18:30:00,81.0,62.7,29.35,WNW,292,0.0,0.0,54,0.00,CLR,SKC,0.12,WeatherDisplay:10.37,2013-07-26 17:30:00,
2013-07-26 18:35:00,82.2,62.3,29.35,NW,315,0.0,0.0,51,0.00,CLR,SKC,0.12,WeatherDisplay:10.37,2013-07-26 17:35:00,
2013-07-26 18:40:00,79.2,61.1,29.35,North,0,0.0,0.0,54,0.00,CLR,SKC,0.12,WeatherDisplay:10.37,2013-07-26 17:40:00,
2013-07-26 18:45:00,75.9,59.6,29.35,NNW,338,0.0,0.0,57,0.00,CLR,SKC,0.12,WeatherDisplay:10.37,2013-07-26 17:45:00,
2013-07-26 18:50:00,73.9,58.7,29.36,WNW,292,0.0,0.0,59,0.00,CLR,SKC,0.12,WeatherDisplay:10.37,2013-07-26 17:50:00,
2013-07-26 18:55:00,71.8,58.1,29.36,WNW,292,0.0,0.0,62,0.00,CLR,SKC,0.12,WeatherDisplay:10.37,2013-07-26 17:55:00,
2013-07-26 19:00:00,70.7,57.5,29.36,WNW,292,0.0,0.0,63,0.00,CLR,SKC,0.12,WeatherDisplay:10.37,2013-07-26 18:00:00,
2013-07-26 19:06:00,69.3,56.6,29.36,WNW,292,0.0,0.0,64,0.00,CLR,SKC,0.12,WeatherDisplay:10.37,2013-07-26 18:06:00,
2013-07-26 19:11:00,68.4,56.6,29.36,WNW,292,0.0,0.0,66,0.00,CLR,SKC,0.12,WeatherDisplay:10.37,2013-07-26 18:11:00,
2013-07-26 19:16:00,67.6,56.7,29.36,West,270,0.0,0.0,68,0.00,CLR,SKC,0.12,WeatherDisplay:10.37,2013-07-26 18:16:00,
2013-07-26 19:21:00,66.9,56.0,29.36,West,270,0.0,0.0,68,0.00,CLR,SKC,0.12,WeatherDisplay:10.37,2013-07-26 18:21:00,
2013-07-26 19:26:00,66.4,55.9,29.36,West,270,0.0,0.0,69,0.00,CLR,SKC,0.12,WeatherDisplay:10.37,2013-07-26 18:26:00,
2013-07-26 19:31:00,65.8,55.8,29.36,West,270,0.0,0.0,70,0.00,CLR,SKC,0.12,WeatherDisplay:10.37,2013-07-26 18:31:00,
2013-07-26 19:36:00,65.5,55.8,29.36,West,270,0.0,0.0,71,0.00,CLR,SKC,0.12,WeatherDisplay:10.37,2013-07-26 18:36:00,
2013-07-26 19:41:00,65.3,55.7,29.36,West,270,0.0,0.0,71,0.00,CLR,SKC,0.12,WeatherDisplay:10.37,2013-07-26 18:41:00,
2013-07-26 19:46:00,65.1,55.9,29.36,West,270,0.0,0.0,72,0.00,CLR,SKC,0.12,WeatherDisplay:10.37,2013-07-26 18:46:00,
2013-07-26 19:51:00,64.6,55.3,29.36,West,270,0.0,0.0,72,0.00,CLR,SKC,0.12,WeatherDisplay:10.37,2013-07-26 18:51:00,
2013-07-26 19:56:00,64.2,55.4,29.36,West,270,0.0,0.0,73,0.00,CLR,SKC,0.12,WeatherDisplay:10.37,2013-07-26 18:56:00,
2013-07-26 20:01:00,64.0,55.2,29.36,West,270,0.0,0.0,73,0.00,CLR,SKC,0.12,WeatherDisplay:10.37,2013-07-26 19:01:00,
2013-07-26 20:06:00,63.7,54.9,29.36,West,270,0.0,0.0,73,0.00,CLR,SKC,0.12,WeatherDisplay:10.37,2013-07-26 19:06:00,
2013-07-26 20:11:00,63.3,54.9,29.36,West,270,0.0,0.0,74,0.00,CLR,SKC,0.12,WeatherDisplay:10.37,2013-07-26 19:11:00,
2013-07-26 20:16:00,63.1,54.7,29.36,West,270,0.0,0.0,74,0.00,CLR,SKC,0.12,WeatherDisplay:10.37,2013-07-26 19:16:00,
2013-07-26 20:21:00,62.8,54.7,29.36,West,270,0.0,0.0,75,0.00,CLR,SKC,0.12,WeatherDisplay:10.37,2013-07-26 19:21:00,
2013-07-26 20:26:00,62.8,54.7,29.36,West,270,0.0,0.0,75,0.00,CLR,SKC,0.12,WeatherDisplay:10.37,2013-07-26 19:26:00,
2013-07-26 20:31:00,62.4,54.8,29.36,West,270,0.0,0.0,76,0.00,CLR,SKC,0.12,WeatherDisplay:10.37,2013-07-26 19:31:00,
2013-07-26 20:36:00,62.2,54.6,29.36,West,270,0.0,0.0,76,0.00,CLR,SKC,0.12,WeatherDisplay:10.37,2013-07-26 19:36:00,
2013-07-26 20:41:00,62.2,54.9,29.37,West,270,0.0,0.0,77,0.00,CLR,SKC,0.12,WeatherDisplay:10.37,2013-07-26 19:41:00,
2013-07-26 20:46:00,61.9,54.6,29.37,West,270,0.0,0.0,77,0.00,CLR,SKC,0.12,WeatherDisplay:10.37,2013-07-26 19:46:00,
2013-07-26 20:51:00,61.7,54.4,29.37,West,270,0.0,0.0,77,0.00,CLR,SKC,0.12,WeatherDisplay:10.37,2013-07-26 19:51:00,
2013-07-26 20:56:00,61.5,54.6,29.37,West,270,0.0,0.0,78,0.00,CLR,SKC,0.12,WeatherDisplay:10.37,2013-07-26 19:56:00,
2013-07-26 21:01:00,61.3,54.4,29.37,West,270,0.0,0.0,78,0.00,CLR,SKC,0.12,WeatherDisplay:10.37,2013-07-26 20:01:00,
2013-07-26 21:06:00,61.0,54.4,29.37,WSW,248,0.0,0.0,79,0.00,CLR,SKC,0.12,WeatherDisplay:10.37,2013-07-26 20:06:00,
2013-07-26 21:11:00,61.0,54.4,29.37,WSW,248,0.0,0.0,79,0.00,CLR,SKC,0.12,WeatherDisplay:10.37,2013-07-26 20:11:00,
2013-07-26 21:16:00,60.6,54.1,29.37,West,270,0.0,0.0,79,0.00,CLR,SKC,0.12,WeatherDisplay:10.37,2013-07-26 20:16:00,
2013-07-26 21:22:00,60.4,54.2,29.37,West,270,0.0,0.0,80,0.00,CLR,SKC,0.12,WeatherDisplay:10.37,2013-07-26 20:22:00,
2013-07-26 21:27:00,59.9,53.7,29.37,West,270,0.0,0.0,80,0.00,CLR,SKC,0.12,WeatherDisplay:10.37,2013-07-26 20:27:00,
2013-07-26 21:32:00,59.5,53.4,29.37,West,270,0.0,0.0,80,0.00,CLR,SKC,0.12,WeatherDisplay:10.37,2013-07-26 20:32:00,
2013-07-26 21:37:00,59.4,53.5,29.38,West,270,0.0,0.0,81,0.00,CLR,SKC,0.12,WeatherDisplay:10.37,2013-07-26 20:37:00,
2013-07-26 21:42:00,58.8,53.0,29.37,West,270,0.0,0.0,81,0.00,CLR,SKC,0.12,WeatherDisplay:10.37,2013-07-26 20:42:00,
2013-07-26 21:47:00,58.8,53.3,29.37,West,270,0.0,0.0,82,0.00,CLR,SKC,0.12,WeatherDisplay:10.37,2013-07-26 20:47:00,
2013-07-26 21:52:00,58.6,53.2,29.37,West,270,0.0,0.0,82,0.00,CLR,SKC,0.12,WeatherDisplay:10.37,2013-07-26 20:52:00,
2013-07-26 21:57:00,58.5,53.3,29.37,WNW,292,0.0,0.0,83,0.00,CLR,SKC,0.12,WeatherDisplay:10.37,2013-07-26 20:57:00,
2013-07-26 22:02:00,58.6,53.5,29.38,WNW,292,0.0,0.0,83,0.00,CLR,SKC,0.12,WeatherDisplay:10.37,2013-07-26 21:02:00,
2013-07-26 22:08:00,58.5,53.3,29.38,WNW,292,0.0,0.0,83,0.00,CLR,SKC,0.12,WeatherDisplay:10.37,2013-07-26 21:08:00,
2013-07-26 22:13:00,58.3,53.5,29.38,WNW,292,0.0,0.0,84,0.00,CLR,SKC,0.12,WeatherDisplay:10.37,2013-07-26 21:13:00,
2013-07-26 22:18:00,58.3,53.5,29.38,WNW,292,0.0,0.0,84,0.00,CLR,SKC,0.12,WeatherDisplay:10.37,2013-07-26 21:18:00,
2013-07-26 22:23:00,58.3,53.5,29.38,West,270,0.0,0.0,84,0.00,CLR,SKC,0.12,WeatherDisplay:10.37,2013-07-26 21:23:00,
2013-07-26 22:28:00,57.9,53.1,29.38,West,270,0.0,0.0,84,0.00,CLR,SKC,0.12,WeatherDisplay:10.37,2013-07-26 21:28:00,
2013-07-26 22:33:00,57.9,53.1,29.38,West,270,0.0,0.0,84,0.00,CLR,SKC,0.12,WeatherDisplay:10.37,2013-07-26 21:33:00,
2013-07-26 22:38:00,57.7,53.3,29.38,West,270,0.0,0.0,85,0.00,CLR,SKC,0.12,WeatherDisplay:10.37,2013-07-26 21:38:00,
2013-07-26 22:43:00,57.6,53.1,29.38,West,270,0.0,0.0,85,0.00,CLR,SKC,0.12,WeatherDisplay:10.37,2013-07-26 21:43:00,
2013-07-26 22:48:00,57.4,52.9,29.38,West,270,0.0,0.0,85,0.00,CLR,SKC,0.12,WeatherDisplay:10.37,2013-07-26 21:48:00,
2013-07-26 22:53:00,57.4,52.9,29.38,West,270,0.0,0.0,85,0.00,CLR,SKC,0.12,WeatherDisplay:10.37,2013-07-26 21:53:00,
2013-07-26 22:58:00,57.0,52.9,29.38,West,270,0.0,0.0,86,0.00,CLR,SKC,0.12,WeatherDisplay:10.37,2013-07-26 21:58:00,
2013-07-26 23:03:00,57.0,52.9,29.38,West,270,0.0,0.0,86,0.00,CLR,SKC,0.12,WeatherDisplay:10.37,2013-07-26 22:03:00,
2013-07-26 23:08:00,56.8,52.4,29.38,West,270,0.0,0.0,85,0.00,CLR,SKC,0.12,WeatherDisplay:10.37,2013-07-26 22:08:00,
2013-07-26 23:13:00,56.8,52.7,29.38,West,270,0.0,0.0,86,0.00,CLR,SKC,0.12,WeatherDisplay:10.37,2013-07-26 22:13:00,
2013-07-26 23:18:00,56.5,52.3,29.38,West,270,0.0,0.0,86,0.00,CLR,SKC,0.12,WeatherDisplay:10.37,2013-07-26 22:18:00,
2013-07-26 23:23:00,56.3,52.2,29.38,West,270,0.0,0.0,86,0.00,CLR,SKC,0.12,WeatherDisplay:10.37,2013-07-26 22:23:00,
2013-07-26 23:28:00,56.3,52.2,29.38,West,270,0.0,0.0,86,0.00,CLR,SKC,0.12,WeatherDisplay:10.37,2013-07-26 22:28:00,
2013-07-26 23:33:00,55.9,52.1,29.38,West,270,0.0,0.0,87,0.00,CLR,SKC,0.12,WeatherDisplay:10.37,2013-07-26 22:33:00,
2013-07-26 23:38:00,55.8,51.6,29.38,West,270,0.0,0.0,86,0.00,CLR,SKC,0.12,WeatherDisplay:10.37,2013-07-26 22:38:00,
2013-07-26 23:43:00,55.6,51.8,29.38,West,270,0.0,0.0,87,0.00,CLR,SKC,0.12,WeatherDisplay:10.37,2013-07-26 22:43:00,
2013-07-26 23:44:00,55.6,51.8,29.38,West,270,0.0,0.0,87,0.00,CLR,SKC,0.12,WeatherDisplay:10.37,2013-07-26 22:44:00,
2013-07-26 23:49:00,55.4,51.6,29.38,West,270,0.0,0.0,87,0.00,CLR,SKC,0.12,WeatherDisplay:10.37,2013-07-26 22:49:00,
2013-07-26 23:54:00,55.2,51.4,29.38,West,270,0.0,0.0,87,0.00,CLR,SKC,0.12,WeatherDisplay:10.37,2013-07-26 22:54:00,
2013-07-26 23:59:00,55.2,51.4,29.38,West,270,0.0,0.0,87,0.00,CLR,SKC,0.12,WeatherDisplay:10.37,2013-07-26 22:59:00,